createdAt,value
2024-01-31T00:02:01.963Z,7.40
2024-01-31T00:04:28.737Z,7.40
2024-01-31T00:06:56.184Z,7.40
2024-01-31T00:09:23.030Z,7.50
2024-01-31T00:11:50.004Z,7.50
2024-01-31T00:14:18.927Z,7.50
2024-01-31T00:16:45.685Z,7.60
2024-01-31T00:19:12.476Z,7.60
2024-01-31T00:21:39.665Z,7.60
2024-01-31T00:24:07.242Z,7.60
2024-01-31T00:26:33.971Z,7.60
2024-01-31T00:29:00.739Z,7.60
2024-01-31T00:31:27.504Z,7.70
2024-01-31T00:33:55.396Z,7.70
2024-01-31T00:36:22.073Z,7.70
2024-01-31T00:38:48.765Z,7.70
2024-01-31T00:41:16.254Z,7.70
2024-01-31T00:43:42.933Z,7.70
2024-01-31T00:46:09.633Z,7.70
2024-01-31T00:48:36.450Z,7.70
2024-01-31T00:51:03.376Z,7.70
2024-01-31T00:53:31.548Z,7.70
2024-01-31T00:55:58.197Z,7.70
2024-01-31T00:58:24.852Z,7.70
2024-01-31T01:00:51.594Z,7.70
2024-01-31T01:03:18.351Z,7.70
2024-01-31T01:05:44.985Z,7.70
2024-01-31T01:08:11.679Z,7.70
2024-01-31T01:10:38.447Z,7.70
2024-01-31T01:13:05.616Z,7.70
2024-01-31T01:15:32.378Z,7.70
2024-01-31T01:17:59.013Z,7.70
2024-01-31T01:20:25.759Z,7.70
2024-01-31T01:22:52.621Z,7.70
2024-01-31T01:25:19.343Z,7.70
2024-01-31T01:27:51.851Z,7.70
2024-01-31T01:30:20.487Z,7.70
2024-01-31T01:32:47.335Z,7.70
2024-01-31T01:35:14.692Z,7.70
2024-01-31T01:37:41.947Z,7.70
2024-01-31T01:40:10.122Z,7.70
2024-01-31T01:42:40.721Z,7.70
2024-01-31T01:45:08.286Z,7.70
2024-01-31T01:47:36.024Z,7.70
2024-01-31T01:50:04.236Z,7.70
2024-01-31T01:52:32.728Z,7.70
2024-01-31T01:55:03.981Z,7.70
2024-01-31T01:57:32.550Z,7.80
2024-01-31T02:00:00.147Z,7.80
2024-01-31T02:02:28.406Z,7.80
2024-01-31T02:04:55.508Z,7.80
2024-01-31T02:07:27.979Z,7.80
2024-01-31T02:09:55.005Z,7.90
2024-01-31T02:12:21.760Z,7.90
2024-01-31T02:14:48.664Z,7.90
2024-01-31T02:17:15.651Z,7.90
2024-01-31T02:19:42.470Z,7.80
2024-01-31T02:22:15.494Z,7.80
2024-01-31T02:24:42.173Z,7.80
2024-01-31T02:27:08.875Z,7.80
2024-01-31T02:29:38.370Z,7.80
2024-01-31T02:32:07.052Z,7.80
2024-01-31T02:34:34.423Z,7.80
2024-01-31T02:37:01.235Z,7.70
2024-01-31T02:39:28.077Z,7.70
2024-01-31T02:41:54.701Z,7.70
2024-01-31T02:44:22.734Z,7.70
2024-01-31T02:46:49.320Z,7.70
2024-01-31T02:49:16.054Z,7.70
2024-01-31T02:51:42.767Z,7.60
2024-01-31T02:54:09.451Z,7.70
2024-01-31T02:56:36.043Z,7.60
2024-01-31T02:59:02.702Z,7.60
2024-01-31T03:01:29.593Z,7.60
2024-01-31T03:03:56.380Z,7.60
2024-01-31T03:06:23.046Z,7.60
2024-01-31T03:08:49.754Z,7.60
2024-01-31T03:11:16.364Z,7.60
2024-01-31T03:13:43.103Z,7.60
2024-01-31T03:16:09.734Z,7.60
2024-01-31T03:18:36.463Z,7.60
2024-01-31T03:21:03.197Z,7.60
2024-01-31T03:23:29.926Z,7.60
2024-01-31T03:25:56.555Z,7.60
2024-01-31T03:28:25.066Z,7.50
2024-01-31T03:30:51.714Z,7.50
2024-01-31T03:33:18.458Z,7.40
2024-01-31T03:35:45.153Z,7.40
2024-01-31T03:38:11.795Z,7.30
2024-01-31T03:40:38.463Z,7.40
2024-01-31T03:43:05.253Z,7.30
2024-01-31T03:45:32.189Z,7.30
2024-01-31T03:47:58.878Z,7.30
2024-01-31T03:50:25.523Z,7.30
2024-01-31T03:52:52.139Z,7.30
2024-01-31T03:55:18.965Z,7.20
2024-01-31T03:57:45.601Z,7.20
2024-01-31T04:00:12.931Z,7.20
2024-01-31T04:02:39.652Z,7.20
2024-01-31T04:05:10.080Z,7.20
2024-01-31T04:07:36.816Z,7.20
2024-01-31T04:10:04.753Z,7.20
2024-01-31T04:12:31.434Z,7.20
2024-01-31T04:14:58.048Z,7.20
2024-01-31T04:17:24.700Z,7.20
2024-01-31T04:19:51.476Z,7.20
2024-01-31T04:22:18.413Z,7.20
2024-01-31T04:24:46.287Z,7.20
2024-01-31T04:27:12.930Z,7.20
2024-01-31T04:29:40.618Z,7.20
2024-01-31T04:32:07.873Z,7.10
2024-01-31T04:34:35.982Z,7.10
2024-01-31T04:37:02.746Z,7.10
2024-01-31T04:39:29.376Z,7.10
2024-01-31T04:41:56.306Z,7.10
2024-01-31T04:44:22.927Z,7.10
2024-01-31T04:46:50.598Z,7.10
2024-01-31T04:49:17.536Z,7.10
2024-01-31T04:51:44.552Z,7.10
2024-01-31T04:54:12.400Z,7.00
2024-01-31T04:56:39.970Z,7.00
2024-01-31T04:59:07.124Z,7.00
2024-01-31T05:01:33.973Z,7.00
2024-01-31T05:04:00.998Z,6.90
2024-01-31T05:06:27.825Z,6.90
2024-01-31T05:08:54.486Z,6.90
2024-01-31T05:11:21.162Z,6.90
2024-01-31T05:13:50.764Z,6.90
2024-01-31T05:16:18.575Z,6.80
2024-01-31T05:18:45.289Z,6.80
2024-01-31T05:21:12.319Z,6.80
2024-01-31T05:23:40.413Z,6.80
2024-01-31T05:26:11.027Z,6.80
2024-01-31T05:28:38.113Z,6.80
2024-01-31T05:31:05.424Z,6.80
2024-01-31T05:33:32.313Z,6.70
2024-01-31T05:36:00.140Z,6.70
2024-01-31T05:38:27.039Z,6.70
2024-01-31T05:40:53.700Z,6.60
2024-01-31T05:43:20.451Z,6.60
2024-01-31T05:45:47.154Z,6.60
2024-01-31T05:48:15.464Z,6.60
2024-01-31T05:50:42.347Z,6.60
2024-01-31T05:53:09.923Z,6.50
2024-01-31T05:55:36.816Z,6.50
2024-01-31T05:58:03.735Z,6.50
2024-01-31T06:00:30.481Z,6.50
2024-01-31T06:03:00.221Z,6.40
2024-01-31T06:05:28.778Z,6.40
2024-01-31T06:07:55.728Z,6.40
2024-01-31T06:10:22.718Z,6.40
2024-01-31T06:12:49.565Z,6.40
2024-01-31T06:15:16.281Z,6.30
2024-01-31T06:17:43.023Z,6.30
2024-01-31T06:20:10.883Z,6.20
2024-01-31T06:22:37.726Z,6.30
2024-01-31T06:25:05.167Z,6.20
2024-01-31T06:27:32.035Z,6.20
2024-01-31T06:30:01.097Z,6.20
2024-01-31T06:32:33.165Z,6.20
2024-01-31T06:35:00.551Z,6.20
2024-01-31T06:37:27.863Z,6.10
2024-01-31T06:39:55.353Z,6.10
2024-01-31T06:42:22.191Z,6.10
2024-01-31T06:44:49.007Z,6.00
2024-01-31T06:47:15.658Z,6.00
2024-01-31T06:49:42.709Z,6.00
2024-01-31T06:52:11.527Z,6.00
2024-01-31T06:54:38.330Z,5.90
2024-01-31T06:57:04.976Z,5.90
2024-01-31T06:59:31.607Z,5.90
2024-01-31T07:01:58.293Z,5.90
2024-01-31T07:04:25.179Z,5.80
2024-01-31T07:06:52.977Z,5.80
2024-01-31T07:09:19.689Z,5.80
2024-01-31T07:11:46.349Z,5.70
2024-01-31T07:14:13.123Z,5.70
2024-01-31T07:16:39.857Z,5.70
2024-01-31T07:19:06.975Z,5.70
2024-01-31T07:21:34.497Z,5.60
2024-01-31T07:24:07.063Z,5.60
2024-01-31T07:26:38.413Z,5.60
2024-01-31T07:29:05.125Z,5.60
2024-01-31T07:31:31.817Z,5.60
2024-01-31T07:33:58.539Z,5.60
2024-01-31T07:36:25.267Z,5.60
2024-01-31T07:38:51.938Z,5.60
2024-01-31T07:41:18.609Z,5.60
2024-01-31T07:43:45.852Z,5.60
2024-01-31T07:46:12.610Z,5.60
2024-01-31T07:48:39.820Z,5.60
2024-01-31T07:51:07.040Z,5.60
2024-01-31T07:53:34.122Z,5.60
2024-01-31T07:56:04.248Z,5.60
2024-01-31T07:58:32.785Z,5.60
2024-01-31T08:00:59.964Z,5.60
2024-01-31T08:03:27.103Z,5.50
2024-01-31T08:05:54.223Z,5.50
2024-01-31T08:08:21.086Z,5.50
2024-01-31T08:10:47.717Z,5.50
2024-01-31T08:13:14.526Z,5.50
2024-01-31T08:15:41.284Z,5.40
2024-01-31T08:18:08.012Z,5.40
2024-01-31T08:20:34.838Z,5.40
2024-01-31T08:23:01.590Z,5.40
2024-01-31T08:25:28.530Z,5.40
2024-01-31T08:27:55.242Z,5.40
2024-01-31T08:30:23.102Z,5.40
2024-01-31T08:32:50.037Z,5.50
2024-01-31T08:35:17.256Z,5.50
2024-01-31T08:37:44.058Z,5.50
2024-01-31T08:40:12.593Z,5.50
2024-01-31T08:42:41.061Z,5.50
2024-01-31T08:45:08.859Z,5.50
2024-01-31T08:47:35.651Z,5.50
2024-01-31T08:50:02.656Z,5.50
2024-01-31T08:52:29.363Z,5.60
2024-01-31T08:54:56.106Z,5.60
2024-01-31T08:57:22.918Z,5.60
2024-01-31T08:59:49.725Z,5.60
2024-01-31T09:02:16.445Z,5.60
2024-01-31T09:04:43.250Z,5.60
2024-01-31T09:07:11.291Z,5.60
2024-01-31T09:09:40.814Z,5.60
2024-01-31T09:12:08.188Z,5.60
2024-01-31T09:14:35.315Z,5.60
2024-01-31T09:17:02.365Z,5.50
2024-01-31T09:19:29.520Z,5.50
2024-01-31T09:21:56.328Z,5.50
2024-01-31T09:24:24.004Z,5.50
2024-01-31T09:26:50.650Z,5.60
2024-01-31T09:29:17.492Z,5.70
2024-01-31T09:31:44.391Z,5.70
2024-01-31T09:34:11.234Z,5.80
2024-01-31T09:36:37.939Z,5.70
2024-01-31T09:39:04.721Z,5.70
2024-01-31T09:41:31.755Z,5.70
2024-01-31T09:43:58.571Z,5.60
2024-01-31T09:46:25.655Z,5.60
2024-01-31T09:48:52.762Z,5.60
2024-01-31T09:51:22.653Z,5.60
2024-01-31T09:53:53.727Z,5.60
2024-01-31T09:56:21.680Z,5.60
2024-01-31T09:58:48.657Z,5.70
2024-01-31T10:01:24.865Z,5.70
2024-01-31T10:03:58.087Z,5.70
2024-01-31T10:06:25.930Z,5.80
2024-01-31T10:08:52.573Z,5.80
2024-01-31T10:11:19.327Z,5.80
2024-01-31T10:13:48.284Z,5.80
2024-01-31T10:16:16.523Z,5.80
2024-01-31T10:18:43.413Z,5.80
2024-01-31T10:21:11.664Z,5.90
2024-01-31T10:23:38.399Z,5.90
2024-01-31T10:26:08.003Z,5.90
2024-01-31T10:28:36.992Z,6.00
2024-01-31T10:31:04.419Z,6.00
2024-01-31T10:33:33.458Z,6.10
2024-01-31T10:38:30.720Z,6.20
2024-01-31T10:40:59.430Z,6.10
2024-01-31T10:43:28.827Z,6.10
2024-01-31T10:45:55.541Z,6.10
2024-01-31T10:48:22.347Z,6.10
2024-01-31T10:50:51.590Z,6.10
2024-01-31T10:53:19.555Z,6.20
2024-01-31T10:55:48.350Z,6.20
2024-01-31T10:58:15.534Z,6.10
2024-01-31T11:00:50.383Z,6.20
2024-01-31T11:03:18.542Z,6.20
2024-01-31T11:05:45.795Z,6.10
2024-01-31T11:08:19.845Z,6.00
2024-01-31T11:10:47.077Z,6.00
2024-01-31T11:13:14.854Z,5.90
2024-01-31T11:15:41.848Z,5.80
2024-01-31T11:18:14.070Z,5.90
2024-01-31T11:20:50.615Z,5.90
2024-01-31T11:23:19.975Z,5.90
2024-01-31T11:25:46.740Z,5.90
2024-01-31T11:28:16.188Z,5.90
2024-01-31T11:30:43.315Z,5.90
2024-01-31T11:33:10.361Z,5.80
2024-01-31T11:35:37.814Z,5.80
2024-01-31T11:38:06.432Z,5.80
2024-01-31T11:40:33.188Z,5.80
2024-01-31T11:42:59.931Z,5.80
2024-01-31T11:45:26.731Z,5.80
2024-01-31T11:47:57.773Z,5.90
2024-01-31T11:50:26.455Z,5.90
2024-01-31T11:52:53.930Z,5.80
2024-01-31T11:55:26.095Z,5.70
2024-01-31T11:57:53.166Z,5.80
2024-01-31T12:00:20.237Z,5.80
2024-01-31T12:02:46.985Z,5.70
2024-01-31T12:05:13.953Z,5.70
2024-01-31T12:07:41.262Z,5.70
2024-01-31T12:10:08.877Z,5.60
2024-01-31T12:12:42.471Z,5.60
2024-01-31T12:15:13.660Z,5.60
2024-01-31T12:17:41.162Z,5.60
2024-01-31T12:20:13.331Z,5.70
2024-01-31T12:22:41.753Z,5.70
2024-01-31T12:25:10.291Z,5.70
2024-01-31T12:27:37.128Z,5.70
2024-01-31T12:30:05.423Z,5.70
2024-01-31T12:32:32.505Z,5.70
2024-01-31T12:34:59.346Z,5.70
2024-01-31T12:37:26.167Z,5.70
2024-01-31T12:39:52.999Z,5.70
2024-01-31T12:42:20.154Z,5.70
2024-01-31T12:44:47.501Z,5.70
2024-01-31T12:47:14.699Z,5.70
2024-01-31T12:49:42.519Z,5.70
2024-01-31T12:52:09.682Z,5.70
2024-01-31T12:54:36.426Z,5.80
2024-01-31T12:57:03.473Z,5.80
2024-01-31T12:59:31.464Z,5.70
2024-01-31T13:01:58.170Z,5.70
2024-01-31T13:04:24.812Z,5.80
2024-01-31T13:06:51.982Z,5.70
2024-01-31T13:09:18.996Z,5.70
2024-01-31T13:11:45.857Z,5.80
2024-01-31T13:14:12.685Z,5.70
2024-01-31T13:16:46.532Z,5.70
2024-01-31T13:19:23.221Z,5.70
2024-01-31T13:21:51.256Z,5.70
2024-01-31T13:24:18.167Z,5.70
2024-01-31T13:26:45.112Z,5.70
2024-01-31T13:29:11.974Z,5.70
2024-01-31T13:31:39.873Z,5.70
2024-01-31T13:34:07.213Z,5.80
2024-01-31T13:36:34.244Z,5.80
2024-01-31T13:39:01.052Z,5.80
2024-01-31T13:41:28.017Z,5.80
2024-01-31T13:43:54.758Z,5.80
2024-01-31T13:46:21.660Z,5.80
2024-01-31T13:48:48.346Z,5.80
2024-01-31T13:51:17.461Z,5.80
2024-01-31T13:53:44.203Z,5.80
2024-01-31T13:56:10.946Z,5.80
2024-01-31T13:58:38.190Z,5.80
2024-01-31T14:01:05.068Z,5.80
2024-01-31T14:03:32.035Z,5.70
2024-01-31T14:05:58.785Z,5.70
2024-01-31T14:08:25.690Z,5.80
2024-01-31T14:10:52.417Z,5.80
2024-01-31T14:13:19.029Z,5.80
2024-01-31T14:15:45.718Z,5.80
2024-01-31T14:18:13.774Z,5.80
2024-01-31T14:20:41.881Z,5.70
2024-01-31T14:23:23.700Z,5.70
2024-01-31T14:25:55.815Z,5.80
2024-01-31T14:28:22.501Z,5.80
2024-01-31T14:30:49.121Z,5.70
2024-01-31T14:33:16.034Z,5.80
2024-01-31T14:35:42.914Z,5.80
2024-01-31T14:38:09.832Z,5.80
2024-01-31T14:40:36.473Z,5.70
2024-01-31T14:43:03.225Z,5.70
2024-01-31T14:45:29.873Z,5.70
2024-01-31T14:47:56.873Z,5.70
2024-01-31T14:50:25.429Z,5.70
2024-01-31T14:52:52.173Z,5.70
2024-01-31T14:55:19.700Z,5.60
2024-01-31T14:57:46.300Z,5.60
2024-01-31T15:00:13.571Z,5.60
2024-01-31T15:02:40.367Z,5.60
2024-01-31T15:05:07.599Z,5.50
2024-01-31T15:07:34.450Z,5.50
2024-01-31T15:10:01.208Z,5.60
2024-01-31T15:12:27.890Z,5.50
2024-01-31T15:14:54.656Z,5.50
2024-01-31T15:17:21.362Z,5.50
2024-01-31T15:19:51.212Z,5.50
2024-01-31T15:22:18.147Z,5.50
2024-01-31T15:24:46.133Z,5.50
2024-01-31T15:27:12.907Z,5.50
2024-01-31T15:29:39.611Z,5.50
2024-01-31T15:32:08.197Z,5.50
2024-01-31T15:34:36.222Z,5.40
2024-01-31T15:37:03.060Z,5.40
2024-01-31T15:39:29.722Z,5.40
2024-01-31T15:41:57.234Z,5.40
2024-01-31T15:44:24.233Z,5.40
2024-01-31T15:46:51.122Z,5.30
2024-01-31T15:49:17.999Z,5.30
2024-01-31T15:51:49.605Z,5.30
2024-01-31T15:54:19.547Z,5.20
2024-01-31T15:56:46.328Z,5.20
2024-01-31T15:59:13.461Z,5.20
2024-01-31T16:01:41.074Z,5.20
2024-01-31T16:04:07.819Z,5.20
2024-01-31T16:06:41.531Z,5.20
2024-01-31T16:09:08.332Z,5.10
2024-01-31T16:11:35.087Z,5.10
2024-01-31T16:14:01.725Z,5.10
2024-01-31T16:16:28.369Z,5.10
2024-01-31T16:18:55.405Z,5.00
2024-01-31T16:21:22.215Z,4.90
2024-01-31T16:23:48.937Z,4.90
2024-01-31T16:26:15.680Z,4.90
2024-01-31T16:28:42.365Z,4.90
2024-01-31T16:31:09.583Z,4.90
2024-01-31T16:33:36.960Z,4.80
2024-01-31T16:36:04.100Z,4.80
2024-01-31T16:38:30.917Z,4.80
2024-01-31T16:40:57.613Z,4.70
2024-01-31T16:43:24.254Z,4.80
2024-01-31T16:45:50.946Z,4.70
2024-01-31T16:48:18.465Z,4.70
2024-01-31T16:50:45.246Z,4.80
2024-01-31T16:53:11.901Z,4.70
2024-01-31T16:55:38.607Z,4.80
2024-01-31T16:58:05.746Z,4.70
2024-01-31T17:00:32.451Z,4.70
2024-01-31T17:02:59.198Z,4.80
2024-01-31T17:05:26.244Z,4.80
2024-01-31T17:07:52.949Z,4.80
2024-01-31T17:10:19.577Z,4.70
2024-01-31T17:12:46.172Z,4.70
2024-01-31T17:15:12.905Z,4.70
2024-01-31T17:17:39.785Z,4.70
2024-01-31T17:20:07.424Z,4.70
2024-01-31T17:22:34.110Z,4.70
2024-01-31T17:25:02.767Z,4.70
2024-01-31T17:27:29.475Z,4.70
2024-01-31T17:29:56.433Z,4.70
2024-01-31T17:32:23.378Z,4.70
2024-01-31T17:34:50.174Z,4.70
2024-01-31T17:37:16.881Z,4.60
2024-01-31T17:39:43.589Z,4.70
2024-01-31T17:42:10.310Z,4.60
2024-01-31T17:44:37.109Z,4.60
2024-01-31T17:47:04.125Z,4.60
2024-01-31T17:49:30.759Z,4.60
2024-01-31T17:51:57.446Z,4.60
2024-01-31T17:54:24.058Z,4.70
2024-01-31T17:56:51.838Z,4.60
2024-01-31T17:59:19.141Z,4.60
2024-01-31T18:01:45.759Z,4.60
2024-01-31T18:04:12.441Z,4.60
2024-01-31T18:06:40.449Z,4.60
2024-01-31T18:09:11.137Z,4.60
2024-01-31T18:11:38.480Z,4.70
2024-01-31T18:14:05.225Z,4.70
2024-01-31T18:16:31.962Z,4.70
2024-01-31T18:19:03.431Z,4.70
2024-01-31T18:21:37.567Z,4.70
2024-01-31T18:24:05.609Z,4.70
2024-01-31T18:26:35.598Z,4.70
2024-01-31T18:29:02.570Z,4.70
2024-01-31T18:31:29.226Z,4.70
2024-01-31T18:33:56.581Z,4.70
2024-01-31T18:36:23.993Z,4.70
2024-01-31T18:38:52.149Z,4.70
2024-01-31T18:41:19.147Z,4.70
2024-01-31T18:43:46.007Z,4.70
2024-01-31T18:46:12.658Z,4.70
2024-01-31T18:48:39.570Z,4.70
2024-01-31T18:51:06.507Z,4.70
2024-01-31T18:53:34.242Z,4.70
2024-01-31T18:56:01.418Z,4.70
2024-01-31T18:58:28.967Z,4.80
2024-01-31T19:01:00.203Z,4.80
2024-01-31T19:03:26.876Z,4.80
2024-01-31T19:05:53.563Z,4.80
2024-01-31T19:08:20.927Z,4.80
2024-01-31T19:10:48.032Z,4.80
2024-01-31T19:13:14.713Z,4.80
2024-01-31T19:15:41.437Z,4.80
2024-01-31T19:18:08.420Z,4.80
2024-01-31T19:20:35.383Z,4.80
2024-01-31T19:23:02.509Z,4.80
2024-01-31T19:25:29.347Z,4.80
2024-01-31T19:27:56.573Z,4.80
2024-01-31T19:30:24.198Z,4.80
2024-01-31T19:32:51.097Z,4.80
2024-01-31T19:35:17.879Z,4.80
2024-01-31T19:37:45.198Z,4.80
2024-01-31T19:40:12.438Z,4.80
2024-01-31T19:42:39.083Z,4.70
2024-01-31T19:45:06.456Z,4.80
2024-01-31T19:47:33.137Z,4.80
2024-01-31T19:49:59.935Z,4.80
2024-01-31T19:52:26.890Z,4.80
2024-01-31T19:54:53.524Z,4.80
2024-01-31T19:57:20.196Z,4.80
2024-01-31T19:59:46.865Z,4.80
2024-01-31T20:02:13.789Z,4.80
2024-01-31T20:04:40.619Z,4.80
2024-01-31T20:07:08.204Z,4.80
2024-01-31T20:09:35.166Z,4.80
2024-01-31T20:12:01.936Z,4.80
2024-01-31T20:14:28.809Z,4.80
2024-01-31T20:16:55.606Z,4.80
2024-01-31T20:19:22.612Z,4.80
2024-01-31T20:21:49.389Z,4.80
2024-01-31T20:24:16.106Z,4.80
2024-01-31T20:26:43.832Z,4.80
2024-01-31T20:29:10.616Z,4.80
2024-01-31T20:31:40.448Z,4.80
2024-01-31T20:34:07.182Z,4.80
2024-01-31T20:36:33.917Z,4.80
2024-01-31T20:39:00.595Z,4.80
2024-01-31T20:41:27.689Z,4.80
2024-01-31T20:43:54.450Z,4.80
2024-01-31T20:46:22.706Z,4.80
2024-01-31T20:48:50.218Z,4.80
2024-01-31T20:51:17.685Z,4.80
2024-01-31T20:53:46.955Z,4.80
2024-01-31T20:56:19.823Z,4.80
2024-01-31T20:58:47.247Z,4.80
2024-01-31T21:01:13.923Z,4.80
2024-01-31T21:03:43.285Z,4.80
2024-01-31T21:06:11.487Z,4.80
2024-01-31T21:08:38.268Z,4.90
2024-01-31T21:11:05.026Z,4.90
2024-01-31T21:13:33.590Z,4.90
2024-01-31T21:16:00.719Z,4.90
2024-01-31T21:18:28.564Z,4.80
2024-01-31T21:20:57.675Z,4.90
2024-01-31T21:23:25.634Z,4.90
2024-01-31T21:25:52.398Z,4.90
2024-01-31T21:28:20.609Z,4.90
2024-01-31T21:30:53.256Z,4.90
2024-01-31T21:33:22.802Z,4.90
2024-01-31T21:35:51.492Z,5.00
2024-01-31T21:38:18.200Z,5.00
2024-01-31T21:40:45.897Z,5.00
2024-01-31T21:43:12.706Z,5.00
2024-01-31T21:45:39.363Z,5.00
2024-01-31T21:48:06.642Z,5.10
2024-01-31T21:50:33.319Z,5.10
2024-01-31T21:53:00.113Z,5.10
2024-01-31T21:55:27.808Z,5.10
2024-01-31T21:57:54.485Z,5.10
2024-01-31T22:00:21.796Z,5.20
2024-01-31T22:02:49.019Z,5.20
2024-01-31T22:05:15.969Z,5.20
2024-01-31T22:07:42.789Z,5.20
2024-01-31T22:10:10.043Z,5.20
2024-01-31T22:12:36.689Z,5.20
2024-01-31T22:15:05.289Z,5.20
2024-01-31T22:17:32.088Z,5.20
2024-01-31T22:19:59.042Z,5.20
2024-01-31T22:22:25.785Z,5.30
2024-01-31T22:24:52.543Z,5.30
2024-01-31T22:27:19.303Z,5.30
2024-01-31T22:29:46.070Z,5.30
2024-01-31T22:32:12.726Z,5.30
2024-01-31T22:34:39.776Z,5.30
2024-01-31T22:37:08.084Z,5.30
2024-01-31T22:39:34.951Z,5.30
2024-01-31T22:42:02.006Z,5.30
2024-01-31T22:44:28.698Z,5.30
2024-01-31T22:46:55.501Z,5.30
2024-01-31T22:49:22.738Z,5.30
2024-01-31T22:51:49.677Z,5.30
2024-01-31T22:54:16.508Z,5.30
2024-01-31T22:56:43.214Z,5.30
2024-01-31T22:59:10.456Z,5.40
2024-01-31T23:01:37.248Z,5.30
2024-01-31T23:04:04.837Z,5.40
2024-01-31T23:06:32.474Z,5.40
2024-01-31T23:08:59.402Z,5.30
2024-01-31T23:11:26.678Z,5.30
2024-01-31T23:13:53.454Z,5.30
2024-01-31T23:16:21.053Z,5.30
2024-01-31T23:18:47.929Z,5.30
2024-01-31T23:21:16.089Z,5.30
2024-01-31T23:23:43.092Z,5.30
2024-01-31T23:26:10.014Z,5.30
2024-01-31T23:28:36.693Z,5.30
2024-01-31T23:31:03.961Z,5.30
2024-01-31T23:33:31.272Z,5.30
2024-01-31T23:35:58.062Z,5.30
2024-01-31T23:38:26.657Z,5.30
2024-01-31T23:40:54.100Z,5.30
2024-01-31T23:43:21.134Z,5.30
2024-01-31T23:45:47.983Z,5.30
2024-01-31T23:48:14.891Z,5.30
2024-01-31T23:50:41.786Z,5.30
2024-01-31T23:53:08.445Z,5.30
2024-01-31T23:55:35.186Z,5.30
2024-01-31T23:58:01.923Z,5.30
